This is the latest recevied weather packets stored in our database for station/object UR7D-10. If no packets are shown the sender has not sent any weather packets the latest 10 day(s).
| Time | Temp. | Humidity | Pressure | Rain* | Wind** | Luminosity | Snow |
|---|---|---|---|---|---|---|---|
| 1777676501 | 10° C | 61% | 1024.5 hPa | 0 mm | - | - | - |
| 1777672896 | 10.56° C | 59% | 1024.9 hPa | 0 mm | - | - | - |
| 1777669294 | 11.67° C | 52% | 1024.7 hPa | 0 mm | - | - | - |
| 1777665689 | 11.67° C | 51% | 1024.7 hPa | 0 mm | - | - | - |
| 1777662085 | 13.33° C | 46% | 1024.7 hPa | 0 mm | - | - | - |
| 1777658484 | 13.89° C | 45% | 1024.1 hPa | 0 mm | - | - | - |
| 1777654879 | 14.44° C | 42% | 1024 hPa | 0 mm | - | - | - |
| 1777647672 | 15.56° C | 37% | 1024.4 hPa | 0 mm | - | - | - |
| 1777644069 | 17.22° C | 32% | 1024.6 hPa | 0 mm | - | - | - |
| 1777629655 | 12.78° C | 35% | 1027 hPa | 0 mm | - | - | - |
| 1777622448 | 11.11° C | 38% | 1027.4 hPa | 0 mm | - | - | - |
| 1777618844 | 10° C | 46% | 1027.8 hPa | 0 mm | - | - | - |
| 1777600830 | 4.44° C | 53% | 1027.2 hPa | 0 mm | - | - | - |
| 1777597223 | 6.11° C | 46% | 1026.9 hPa | 0 mm | - | - | - |
| 1777593620 | 4.44° C | 51% | 1026.9 hPa | 0 mm | - | - | - |
| 1777590017 | 5.56° C | 49% | 1027.3 hPa | 0 mm | - | - | - |
| 1777586415 | 7.22° C | 42% | 1027.1 hPa | 0 mm | - | - | - |
| 1777582811 | 6.67° C | 45% | 1027.1 hPa | 0 mm | - | - | - |
| 1777579207 | 7.22° C | 43% | 1026.8 hPa | 0 mm | - | - | - |
| 1777575603 | 9.44° C | 37% | 1026.6 hPa | 0 mm | - | - | - |
| 1777572001 | 10° C | 36% | 1025.6 hPa | 0 mm | - | - | - |
| 1777561190 | 15° C | 25% | 1024.3 hPa | 0 mm | - | - | - |
| 1777550380 | 13.33° C | 27% | 1025.6 hPa | 0 mm | - | - | - |
| 1777543173 | 12.22° C | 31% | 1026.5 hPa | 0 mm | - | - | - |
| 1777539570 | 11.11° C | 33% | 1026.7 hPa | 0 mm | - | - | - |
* Rain latest hour (hover to see other rain measurements)
** Current wind speed in m/s (hover to see current wind gust speed)